Terminal Aerodrome Forecast
Issued by NWS Caribou, ME

Current Version | Previous Version | Text Only | Print | Product List | Glossary On
Versions: 1 2 3 4 5 6 7 8 9 10 11 12 13 14 15 16 17 18 19 20 21 22 23 24 25 26 27 28 29 30 31 32 33 34 35 36 37 38 39
000
FTUS41 KCAR 011613 AAB
TAFCAR
TAF AMD
KCAR 011613Z 0116/0212 17010KT 3/4SM -SNPL BR OVC008 WS020/17050KT
      TEMPO 0116/0118 1/2SM SNPL FG OVC006
     FM011800 18012KT 1SM -SNPL BR OVC006
     FM012200 21006KT 2SM -SN OVC003
     FM020000 27010KT 3SM -SHSN OVC009
     FM020200 30016G26KT 4SM -SHSN OVC022
     FM020600 30016G25KT 6SM BLSN VCSH BKN029 WS020/30045KT=

USA.gov is the U.S. government's official web portal to all federal, state and local government web resources and services.